createdAt,value
2023-02-19T00:02:23.946Z,5.20
2023-02-19T00:05:01.821Z,5.21
2023-02-19T04:09:59.551Z,5.11
2023-02-19T04:12:39.639Z,5.17
2023-02-19T04:15:12.353Z,5.10
2023-02-19T04:17:45.473Z,5.03
2023-02-19T04:20:16.081Z,4.98
2023-02-19T04:22:44.691Z,4.92
2023-02-19T04:25:15.826Z,4.87
2023-02-19T04:27:44.223Z,4.84
2023-02-19T04:30:14.301Z,5.15
2023-02-19T04:32:46.298Z,5.31
2023-02-19T04:35:26.354Z,5.18
2023-02-19T04:37:57.525Z,5.07
2023-02-19T04:40:29.513Z,4.99
2023-02-19T04:42:58.420Z,4.93
2023-02-19T04:45:34.010Z,4.87
2023-02-19T04:48:06.724Z,4.82
2023-02-19T04:50:39.869Z,4.77
2023-02-19T04:53:10.251Z,4.74
2023-02-19T04:55:40.642Z,4.76
2023-02-19T04:58:08.683Z,5.13
2023-02-19T05:00:37.166Z,5.30
2023-02-19T05:03:12.462Z,5.16
2023-02-19T05:06:11.931Z,5.03
2023-02-19T05:08:46.551Z,4.93
2023-02-19T05:11:18.589Z,4.83
2023-02-19T05:13:54.801Z,4.74
2023-02-19T05:16:27.006Z,4.65
2023-02-19T05:18:56.137Z,4.55
2023-02-19T05:21:25.587Z,4.45
2023-02-19T05:23:56.386Z,4.40
2023-02-19T05:26:25.309Z,4.69
2023-02-19T05:28:53.545Z,4.82
2023-02-19T05:31:27.909Z,4.66
2023-02-19T05:33:58.735Z,4.49
2023-02-19T05:36:30.851Z,4.38
2023-02-19T05:38:58.857Z,4.33
2023-02-19T05:41:27.862Z,4.27
2023-02-19T05:43:57.511Z,4.21
2023-02-19T05:46:31.751Z,4.22
2023-02-19T05:49:03.588Z,4.54
2023-02-19T05:51:34.633Z,4.72
2023-02-19T05:54:04.555Z,4.57
2023-02-19T05:56:39.688Z,4.41
2023-02-19T05:59:29.016Z,4.35
2023-02-19T06:01:58.373Z,4.29
2023-02-19T06:04:31.546Z,4.26
2023-02-19T06:07:05.352Z,4.38
2023-02-19T06:09:35.423Z,4.69
2023-02-19T06:12:08.686Z,4.78
2023-02-19T06:14:39.050Z,4.65
2023-02-19T06:17:08.256Z,4.56
2023-02-19T06:19:39.370Z,4.52
2023-02-19T06:22:12.137Z,4.49
2023-02-19T06:24:45.054Z,4.48
2023-02-19T06:27:16.104Z,4.49
2023-02-19T06:29:49.870Z,4.84
2023-02-19T06:32:18.627Z,4.98
2023-02-19T06:34:55.546Z,4.87
2023-02-19T06:37:26.955Z,4.78
2023-02-19T06:39:54.741Z,4.74
2023-02-19T06:42:32.725Z,4.72
2023-02-19T06:45:02.741Z,4.71
2023-02-19T06:47:32.325Z,4.95
2023-02-19T06:50:07.697Z,5.19
2023-02-19T06:52:44.778Z,5.12
2023-02-19T06:55:15.706Z,5.05
2023-02-19T06:57:49.256Z,5.02
2023-02-19T07:00:20.695Z,4.99
2023-02-19T07:02:56.706Z,4.97
2023-02-19T07:05:28.317Z,4.98
2023-02-19T07:08:02.938Z,5.03
2023-02-19T07:10:33.531Z,5.42
2023-02-19T07:13:04.724Z,5.57
2023-02-19T07:16:25.253Z,5.47
2023-02-19T07:18:58.851Z,5.34
2023-02-19T07:21:58.082Z,5.29
2023-02-19T07:24:29.939Z,5.28
2023-02-19T07:27:00.931Z,5.26
2023-02-19T07:29:31.000Z,5.25
2023-02-19T07:32:30.912Z,5.28
2023-02-19T07:34:58.328Z,5.61
2023-02-19T07:37:29.552Z,5.60
2023-02-19T07:39:58.616Z,5.53
2023-02-19T07:42:26.385Z,5.49
2023-02-19T07:44:55.774Z,5.47
2023-02-19T07:47:25.215Z,5.46
2023-02-19T07:49:54.317Z,5.51
2023-02-19T07:52:25.379Z,5.55
2023-02-19T07:55:00.038Z,5.56
2023-02-19T07:57:33.351Z,5.56
2023-02-19T08:00:28.148Z,5.57
2023-02-19T08:03:02.649Z,5.61
2023-02-19T08:05:40.260Z,5.64
2023-02-19T08:08:10.812Z,5.67
2023-02-19T08:10:58.711Z,5.67
2023-02-19T08:13:30.314Z,5.69
2023-02-19T08:16:42.526Z,5.77
2023-02-19T08:19:13.146Z,5.86
2023-02-19T08:21:45.411Z,5.90
2023-02-19T08:24:16.846Z,5.95
2023-02-19T08:26:48.676Z,6.01
2023-02-19T08:29:18.137Z,6.02
2023-02-19T08:31:48.535Z,6.03
2023-02-19T08:34:20.692Z,6.05
2023-02-19T08:36:51.104Z,6.08
2023-02-19T08:39:21.926Z,6.12
2023-02-19T08:41:52.155Z,6.20
2023-02-19T08:44:32.294Z,6.25
2023-02-19T08:47:01.117Z,6.29
2023-02-19T08:49:29.298Z,6.34
2023-02-19T08:52:02.681Z,6.38
2023-02-19T08:54:37.324Z,6.43
2023-02-19T08:57:09.468Z,6.49
2023-02-19T08:59:40.797Z,6.51
2023-02-19T09:02:13.135Z,6.51
2023-02-19T09:04:45.819Z,6.47
2023-02-19T09:07:24.599Z,6.45
2023-02-19T09:09:54.336Z,6.43
2023-02-19T09:12:25.312Z,6.41
2023-02-19T09:14:55.339Z,6.40
2023-02-19T09:17:32.192Z,6.44
2023-02-19T09:20:06.118Z,6.52
2023-02-19T09:22:36.164Z,6.63
2023-02-19T09:25:06.578Z,6.77
2023-02-19T09:27:36.110Z,6.91
2023-02-19T09:30:08.806Z,7.05
2023-02-19T09:32:42.415Z,7.19
2023-02-19T09:35:14.420Z,7.29
2023-02-19T09:37:45.532Z,7.33
2023-02-19T09:40:21.057Z,7.32
2023-02-19T09:43:21.841Z,7.30
2023-02-19T09:45:51.530Z,7.27
2023-02-19T09:48:32.402Z,7.20
2023-02-19T09:51:04.776Z,7.18
2023-02-19T09:53:41.421Z,7.20
2023-02-19T09:56:14.834Z,7.19
2023-02-19T09:58:49.031Z,7.17
2023-02-19T10:01:16.739Z,7.21
2023-02-19T10:03:47.195Z,7.23
2023-02-19T10:06:23.506Z,7.27
2023-02-19T10:09:28.968Z,7.27
2023-02-19T10:11:59.415Z,7.23
2023-02-19T10:14:39.359Z,7.18
2023-02-19T10:17:15.762Z,7.19
2023-02-19T10:20:15.357Z,7.19
2023-02-19T10:23:07.815Z,7.15
2023-02-19T10:25:43.224Z,7.14
2023-02-19T10:28:45.499Z,7.12
2023-02-19T10:31:41.414Z,7.12
2023-02-19T10:34:21.663Z,7.10
2023-02-19T10:37:15.863Z,7.10
2023-02-19T10:39:49.710Z,7.11
2023-02-19T10:42:23.204Z,7.06
2023-02-19T10:44:58.246Z,7.01
2023-02-19T10:47:27.133Z,6.98
2023-02-19T10:50:02.122Z,6.97
2023-02-19T10:52:36.186Z,6.99
2023-02-19T10:55:24.641Z,7.02
2023-02-19T10:57:59.306Z,7.11
2023-02-19T11:00:30.708Z,7.20
2023-02-19T11:03:33.232Z,7.30
2023-02-19T11:06:09.526Z,7.41
2023-02-19T11:09:00.618Z,7.42
2023-02-19T11:11:33.270Z,7.37
2023-02-19T11:14:22.694Z,7.31
2023-02-19T11:16:54.102Z,7.27
2023-02-19T11:19:42.092Z,7.23
2023-02-19T11:22:58.586Z,7.19
2023-02-19T11:25:28.471Z,7.14
2023-02-19T11:28:21.462Z,7.11
2023-02-19T11:30:55.476Z,7.12
2023-02-19T11:33:29.240Z,7.12
2023-02-19T11:36:30.062Z,7.12
2023-02-19T11:39:04.182Z,7.14
2023-02-19T11:42:17.725Z,7.19
2023-02-19T11:45:20.678Z,7.22
2023-02-19T11:48:23.432Z,7.17
2023-02-19T11:51:15.306Z,7.10
2023-02-19T11:53:49.830Z,7.01
2023-02-19T11:56:19.829Z,6.94
2023-02-19T11:59:07.138Z,6.90
2023-02-19T12:02:06.844Z,6.84
2023-02-19T12:05:14.823Z,6.77
2023-02-19T12:08:27.753Z,6.69
2023-02-19T12:11:13.705Z,6.63
2023-02-19T12:14:32.469Z,6.58
2023-02-19T12:17:49.932Z,6.54
2023-02-19T12:20:51.219Z,6.51
2023-02-19T12:23:55.432Z,6.50
2023-02-19T12:26:42.948Z,6.46
2023-02-19T12:29:51.952Z,6.45
2023-02-19T12:33:09.217Z,6.48
2023-02-19T12:36:23.880Z,6.48
2023-02-19T12:39:53.223Z,6.42
2023-02-19T12:43:05.362Z,6.33
2023-02-19T12:46:13.339Z,6.31
2023-02-19T12:48:52.385Z,6.33
2023-02-19T12:51:50.020Z,6.35
2023-02-19T12:54:48.916Z,6.37
2023-02-19T12:57:38.241Z,6.36
2023-02-19T13:00:34.665Z,6.37
2023-02-19T13:03:27.707Z,6.38
2023-02-19T13:06:22.388Z,6.39
2023-02-19T13:09:06.731Z,6.43
2023-02-19T13:12:37.678Z,6.45
2023-02-19T13:15:14.739Z,6.45
2023-02-19T13:18:01.463Z,6.43
2023-02-19T13:20:45.126Z,6.45
2023-02-19T13:23:57.609Z,6.46
2023-02-19T13:26:48.585Z,6.48
2023-02-19T13:30:15.358Z,6.49
2023-02-19T13:33:30.050Z,6.51
2023-02-19T13:36:12.957Z,6.52
2023-02-19T13:38:45.564Z,6.51
2023-02-19T13:41:29.398Z,6.50
2023-02-19T13:44:03.471Z,6.45
2023-02-19T13:46:40.684Z,6.38
2023-02-19T13:49:35.080Z,6.37
2023-02-19T13:52:37.536Z,6.38
2023-02-19T13:55:46.061Z,6.37
2023-02-19T13:58:51.943Z,6.35
2023-02-19T14:02:00.297Z,6.32
2023-02-19T14:05:02.641Z,6.26
2023-02-19T14:07:59.930Z,6.22
2023-02-19T14:10:57.376Z,6.19
2023-02-19T14:14:06.355Z,6.16
2023-02-19T14:17:31.963Z,6.15
2023-02-19T14:20:54.237Z,6.11
2023-02-19T14:23:28.340Z,6.08
2023-02-19T14:26:03.912Z,6.08
2023-02-19T14:28:41.131Z,6.07
2023-02-19T14:31:20.986Z,6.07
2023-02-19T14:33:53.797Z,6.05
2023-02-19T14:36:50.723Z,6.06
2023-02-19T14:39:52.788Z,6.04
2023-02-19T14:42:26.132Z,6.02
2023-02-19T14:44:56.913Z,5.98
2023-02-19T14:47:36.528Z,5.96
2023-02-19T14:50:08.954Z,5.95
2023-02-19T14:52:43.891Z,5.93
2023-02-19T14:55:37.462Z,5.92
2023-02-19T14:58:30.180Z,5.83
2023-02-19T15:00:59.216Z,5.85
2023-02-19T15:03:35.032Z,5.82
2023-02-19T15:06:07.668Z,5.81
2023-02-19T15:08:49.142Z,5.79
2023-02-19T15:11:22.278Z,5.78
2023-02-19T15:14:13.029Z,5.76
2023-02-19T15:16:47.948Z,5.76
2023-02-19T15:19:20.832Z,5.74
2023-02-19T15:21:54.731Z,5.69
2023-02-19T15:24:36.118Z,5.66
2023-02-19T15:27:07.313Z,5.65
2023-02-19T15:29:37.957Z,5.63
2023-02-19T15:32:16.293Z,5.61
2023-02-19T15:35:06.702Z,5.58
2023-02-19T15:37:42.735Z,5.54
2023-02-19T15:40:26.828Z,5.51
2023-02-19T15:42:59.292Z,5.46
2023-02-19T15:45:38.309Z,5.43
2023-02-19T15:48:20.076Z,5.42
2023-02-19T15:50:55.790Z,5.39
2023-02-19T15:53:32.253Z,5.35
2023-02-19T15:56:16.418Z,5.31
2023-02-19T15:59:03.216Z,5.27
2023-02-19T16:01:58.409Z,5.25
2023-02-19T16:04:29.290Z,5.23
2023-02-19T16:07:32.588Z,5.20
2023-02-19T16:10:16.327Z,5.18
2023-02-19T16:12:56.893Z,5.15
2023-02-19T16:15:27.870Z,5.13
2023-02-19T16:17:56.312Z,5.11
2023-02-19T16:20:34.857Z,5.11
2023-02-19T16:23:11.479Z,5.11
2023-02-19T16:27:42.826Z,5.03
2023-02-19T16:30:27.915Z,5.12
2023-02-19T16:33:38.328Z,5.10
2023-02-19T16:36:42.626Z,5.07
2023-02-19T16:39:18.381Z,5.03
2023-02-19T16:41:54.298Z,4.98
2023-02-19T16:44:27.710Z,4.97
2023-02-19T16:47:04.945Z,4.95
2023-02-19T16:49:35.092Z,4.93
2023-02-19T16:52:07.295Z,4.92
2023-02-19T16:54:37.171Z,4.90
2023-02-19T16:57:09.794Z,4.88
2023-02-19T16:59:40.387Z,4.85
2023-02-19T17:02:14.456Z,4.82
2023-02-19T17:04:43.957Z,4.81
2023-02-19T17:07:19.637Z,4.80
2023-02-19T17:09:51.897Z,4.80
2023-02-19T17:12:24.283Z,4.79
2023-02-19T17:14:55.650Z,4.79
2023-02-19T17:17:24.272Z,4.78
2023-02-19T17:19:54.015Z,4.78
2023-02-19T17:22:24.503Z,4.77
2023-02-19T17:24:54.980Z,4.77
2023-02-19T17:27:28.889Z,4.77
2023-02-19T17:29:59.274Z,4.75
2023-02-19T17:32:35.795Z,4.73
2023-02-19T17:35:06.865Z,4.73
2023-02-19T17:37:35.733Z,4.72
2023-02-19T17:40:31.899Z,4.72
2023-02-19T17:43:03.004Z,4.71
2023-02-19T17:45:36.587Z,4.69
2023-02-19T17:48:07.296Z,4.68
2023-02-19T17:50:39.496Z,4.66
2023-02-19T17:53:08.886Z,4.62
2023-02-19T17:55:37.505Z,4.56
2023-02-19T17:58:09.621Z,4.50
2023-02-19T18:00:39.324Z,4.44
2023-02-19T18:03:08.665Z,4.37
2023-02-19T18:05:39.061Z,4.32
2023-02-19T18:08:14.388Z,4.27
2023-02-19T18:10:49.478Z,4.22
2023-02-19T18:13:19.457Z,4.16
2023-02-19T18:15:49.374Z,4.10
2023-02-19T18:18:23.295Z,4.11
2023-02-19T18:20:53.939Z,4.40
2023-02-19T18:23:28.520Z,4.52
2023-02-19T18:26:03.884Z,4.52
2023-02-19T18:28:34.960Z,4.38
2023-02-19T18:31:06.339Z,4.26
2023-02-19T18:33:35.689Z,4.18
2023-02-19T18:36:09.555Z,4.11
2023-02-19T18:38:41.621Z,4.07
2023-02-19T18:41:20.269Z,4.04
2023-02-19T18:43:59.768Z,4.00
2023-02-19T18:46:37.692Z,3.94
2023-02-19T18:49:09.625Z,3.89
2023-02-19T18:51:44.200Z,3.84
2023-02-19T18:54:16.010Z,3.80
2023-02-19T18:56:47.343Z,3.75
2023-02-19T18:59:16.286Z,3.70
2023-02-19T19:01:48.814Z,3.65
2023-02-19T19:04:18.927Z,3.61
2023-02-19T19:06:50.407Z,3.57
2023-02-19T19:09:24.698Z,3.54
2023-02-19T19:11:55.889Z,3.50
2023-02-19T19:14:27.571Z,3.52
2023-02-19T19:17:00.697Z,3.84
2023-02-19T19:19:32.078Z,3.91
2023-02-19T19:22:07.407Z,3.81
2023-02-19T19:24:41.873Z,3.73
2023-02-19T19:27:13.138Z,3.69
2023-02-19T19:29:47.806Z,3.68
2023-02-19T19:32:21.308Z,3.68
2023-02-19T19:34:53.336Z,3.68
2023-02-19T19:37:28.893Z,3.69
2023-02-19T19:40:05.247Z,3.70
2023-02-19T19:42:39.049Z,3.70
2023-02-19T19:45:18.800Z,3.70
2023-02-19T19:47:56.144Z,3.69
2023-02-19T19:50:30.999Z,3.68
2023-02-19T19:53:02.092Z,3.65
2023-02-19T19:55:32.550Z,3.61
2023-02-19T19:58:04.461Z,3.62
2023-02-19T20:00:36.817Z,3.92
2023-02-19T20:03:07.221Z,4.09
2023-02-19T20:05:35.987Z,3.99
2023-02-19T20:08:09.304Z,3.86
2023-02-19T20:10:39.130Z,3.80
2023-02-19T20:13:12.918Z,3.74
2023-02-19T20:15:44.491Z,3.70
2023-02-19T20:18:30.680Z,3.68
2023-02-19T20:21:04.763Z,3.64
2023-02-19T20:23:40.200Z,3.58
2023-02-19T20:26:10.396Z,3.52
2023-02-19T20:28:46.539Z,3.48
2023-02-19T20:31:18.981Z,3.45
2023-02-19T20:33:51.278Z,3.40
2023-02-19T20:36:20.294Z,3.35
2023-02-19T20:38:51.502Z,3.49
2023-02-19T20:41:21.483Z,3.75
2023-02-19T20:43:53.090Z,3.81
2023-02-19T20:46:23.615Z,3.65
2023-02-19T20:48:56.148Z,3.51
2023-02-19T20:51:25.255Z,3.43
2023-02-19T20:53:58.506Z,3.37
2023-02-19T20:56:28.440Z,3.33
2023-02-19T20:58:59.626Z,3.30
2023-02-19T21:01:29.418Z,3.28
2023-02-19T21:03:59.664Z,3.27
2023-02-19T21:06:31.672Z,3.25
2023-02-19T21:09:04.110Z,3.24
2023-02-19T21:11:37.145Z,3.22
2023-02-19T21:14:07.862Z,3.42
2023-02-19T21:16:38.138Z,3.68
2023-02-19T21:19:14.624Z,3.60
2023-02-19T21:21:46.949Z,3.48
2023-02-19T21:24:22.730Z,3.40
2023-02-19T21:26:54.165Z,3.35
2023-02-19T21:29:25.522Z,3.34
2023-02-19T21:31:56.097Z,3.33
2023-02-19T21:34:27.121Z,3.32
2023-02-19T21:37:00.000Z,3.30
2023-02-19T21:39:34.214Z,3.27
2023-02-19T21:42:18.127Z,3.24
2023-02-19T21:44:48.010Z,3.28
2023-02-19T21:47:18.280Z,3.61
2023-02-19T21:49:48.036Z,3.72
2023-02-19T21:52:18.018Z,3.62
2023-02-19T21:54:47.869Z,3.53
2023-02-19T21:57:16.281Z,3.48
2023-02-19T21:59:46.118Z,3.47
2023-02-19T22:02:14.958Z,3.46
2023-02-19T22:04:51.374Z,3.45
2023-02-19T22:07:21.913Z,3.44
2023-02-19T22:09:53.604Z,3.43
2023-02-19T22:12:23.110Z,3.41
2023-02-19T22:14:54.972Z,3.54
2023-02-19T22:17:25.979Z,3.77
2023-02-19T22:19:57.340Z,3.86
2023-02-19T22:22:27.643Z,3.70
2023-02-19T22:24:58.309Z,3.55
2023-02-19T22:27:29.850Z,3.43
2023-02-19T22:30:02.054Z,3.33
2023-02-19T22:32:34.114Z,3.25
2023-02-19T22:35:04.436Z,3.18
2023-02-19T22:37:36.357Z,3.09
2023-02-19T22:40:08.091Z,3.04
2023-02-19T22:42:39.951Z,3.00
2023-02-19T22:45:14.044Z,3.00
2023-02-19T22:47:47.057Z,3.33
2023-02-19T22:50:20.715Z,3.47
2023-02-19T22:52:55.051Z,3.30
2023-02-19T22:55:23.581Z,3.16
2023-02-19T22:57:59.055Z,3.06
2023-02-19T23:00:31.506Z,3.00
2023-02-19T23:03:02.676Z,2.95
2023-02-19T23:05:34.766Z,2.87
2023-02-19T23:08:10.781Z,2.81
2023-02-19T23:10:43.420Z,2.72
2023-02-19T23:13:14.139Z,2.63
2023-02-19T23:15:44.374Z,2.64
2023-02-19T23:18:14.201Z,2.90
2023-02-19T23:20:42.663Z,3.07
2023-02-19T23:23:12.644Z,2.93
2023-02-19T23:25:44.816Z,2.79
2023-02-19T23:28:14.381Z,2.69
2023-02-19T23:30:47.291Z,2.61
2023-02-19T23:33:17.964Z,2.56
2023-02-19T23:35:50.388Z,2.49
2023-02-19T23:38:20.425Z,2.45
2023-02-19T23:40:51.481Z,2.39
2023-02-19T23:43:22.959Z,2.35
2023-02-19T23:45:54.028Z,2.37
2023-02-19T23:48:23.916Z,2.71
2023-02-19T23:50:58.158Z,2.83
2023-02-19T23:53:30.382Z,2.68
2023-02-19T23:56:01.200Z,2.55
2023-02-19T23:58:32.202Z,2.48
